Time;durP1;ratioP1;P1;durP2;ratioP2;P2;SDS_P1;SDS_P2;PMS_P1;PMS_P2;Temp;Humidity;BMP_temperature;BMP_pressure;BME280_temperature;BME280_humidity;BME280_pressure;Samples;Min_cycle;Max_cycle;Signal;HPM_P1;HPM_P2
2022/06/09 00:01:45;;;;;;;8.60;1.80;;;14.70;99.90;14.40;100759.00;;;;5036163;28;20181;-63
2022/06/09 00:04:58;;;;;;;3.13;2.53;;;14.70;99.90;14.30;100756.00;;;;5032705;28;20272;-61
2022/06/09 00:08:07;;;;;;;2.00;1.90;;;14.70;99.90;14.60;100757.00;;;;5013108;28;20315;-61
2022/06/09 00:11:36;;;;;;;5.00;1.03;;;14.80;99.90;14.20;100766.00;;;;5013348;28;20184;-62
2022/06/09 00:14:45;;;;;;;0.67;0.67;;;14.70;99.90;14.20;100768.00;;;;5013527;28;20280;-61
2022/06/09 00:17:36;;;;;;;0.40;0.40;;;14.60;99.90;14.40;100772.00;;;;5033187;28;20290;-61
2022/06/09 00:20:42;;;;;;;0.90;0.90;;;14.60;99.90;14.30;100776.00;;;;5035594;28;20244;-61
2022/06/09 00:24:01;;;;;;;1.90;0.90;;;14.80;99.90;14.30;100775.00;;;;5035323;28;20228;-61
2022/06/09 00:27:01;;;;;;;5.90;1.57;;;14.70;99.90;14.10;100723.00;;;;5034721;28;20212;-61
2022/06/09 00:30:07;;;;;;;6.80;1.43;;;14.50;99.90;14.30;100781.00;;;;5017625;28;20179;-61
2022/06/09 00:32:54;;;;;;;0.63;0.63;;;14.60;99.90;13.90;100775.00;;;;5034090;28;20228;-61
2022/06/09 00:36:05;;;;;;;5.70;1.83;;;14.40;99.90;14.00;100783.00;;;;5033963;28;20197;-63
2022/06/09 00:39:00;;;;;;;7.63;1.90;;;14.30;99.90;13.90;100774.00;;;;5035109;28;20190;-61
2022/06/09 00:41:52;;;;;;;8.93;1.27;;;14.30;99.90;14.00;100783.00;;;;5033947;28;20199;-61
2022/06/09 00:44:38;;;;;;;1.40;1.00;;;14.30;99.90;13.70;100782.00;;;;5034860;28;20206;-62
2022/06/09 00:47:31;;;;;;;12.30;2.87;;;14.20;99.90;13.70;100797.00;;;;5033837;28;20645;-62
2022/06/09 00:50:08;;;;;;;0.97;0.90;;;14.20;99.90;13.60;100733.00;;;;5032171;28;20304;-64
2022/06/09 00:53:18;;;;;;;5.80;1.07;;;14.10;99.90;13.60;100794.00;;;;5033204;28;20224;-61
2022/06/09 00:56:24;;;;;;;3.80;1.40;;;14.10;99.90;13.60;100793.00;;;;5033655;28;20660;-61
2022/06/09 00:59:29;;;;;;;1.10;0.93;;;14.00;99.90;13.50;100808.00;;;;5048988;28;20197;-62
2022/06/09 01:02:46;;;;;;;7.53;1.20;;;14.00;99.90;13.60;100807.00;;;;5033389;28;20193;-61
2022/06/09 01:06:01;;;;;;;7.23;1.03;;;14.00;99.90;13.60;100788.00;;;;5033138;28;20671;-61
2022/06/09 01:09:11;;;;;;;0.40;0.40;;;14.00;99.90;13.50;100803.00;;;;5034075;28;20188;-61
2022/06/09 01:12:42;;;;;;;1.00;1.00;;;14.00;99.90;13.50;100816.00;;;;5033185;28;20301;-60
2022/06/09 01:15:52;;;;;;;7.73;3.13;;;13.90;99.90;13.50;100820.00;;;;5034414;28;20236;-61
2022/06/09 01:18:56;;;;;;;1.23;1.13;;;13.90;99.90;13.10;100801.00;;;;5033656;28;20638;-61
2022/06/09 01:22:14;;;;;;;2.63;1.80;;;13.80;99.90;13.40;100811.00;;;;5031094;28;20205;-61
2022/06/09 01:25:44;;;;;;;1.20;1.07;;;13.90;99.90;13.60;100807.00;;;;5034299;28;20189;-61
2022/06/09 01:28:31;;;;;;;0.97;0.87;;;13.80;99.90;13.50;100753.00;;;;5012219;28;20218;-61
2022/06/09 01:31:48;;;;;;;3.13;1.40;;;13.90;99.90;13.40;100814.00;;;;5011907;28;20291;-61
2022/06/09 01:34:41;;;;;;;2.20;2.10;;;13.90;99.90;13.30;100818.00;;;;4995961;28;20189;-61
2022/06/09 01:38:00;;;;;;;1.73;1.63;;;13.80;99.90;13.40;100817.00;;;;5033799;28;20186;-61
2022/06/09 01:41:06;;;;;;;4.23;2.00;;;13.80;99.90;13.40;100825.00;;;;5011811;28;20202;-61
2022/06/09 01:44:04;;;;;;;0.73;0.63;;;13.80;99.90;13.40;100814.00;;;;4995558;28;20695;-61
2022/06/09 01:46:55;;;;;;;1.10;1.10;;;13.80;99.90;13.40;100817.00;;;;4990751;28;20198;-61
2022/06/09 01:49:55;;;;;;;0.60;0.60;;;13.80;99.90;13.60;100813.00;;;;5011909;28;20261;-61
2022/06/09 01:53:01;;;;;;;3.23;1.17;;;13.80;99.90;13.20;100821.00;;;;5024739;28;20213;-61
2022/06/09 01:55:58;;;;;;;0.83;0.83;;;13.70;99.90;13.30;100823.00;;;;5033500;28;20206;-61
2022/06/09 01:59:05;;;;;;;0.30;0.30;;;13.70;99.90;13.20;100831.00;;;;5032586;28;20179;-61
2022/06/09 02:02:16;;;;;;;0.60;0.60;;;13.60;99.90;13.20;100824.00;;;;5033582;28;20239;-61
2022/06/09 02:05:03;;;;;;;12.93;3.90;;;13.70;99.90;13.40;100834.00;;;;5015941;28;20197;-61
2022/06/09 02:07:56;;;;;;;4.83;2.27;;;13.60;99.90;13.20;100829.00;;;;5033202;28;20181;-61
2022/06/09 02:10:48;;;;;;;0.53;0.53;;;13.70;99.90;13.20;100829.00;;;;5032333;28;20682;-61
2022/06/09 02:13:45;;;;;;;0.40;0.40;;;13.60;99.90;13.30;100846.00;;;;5033488;28;20185;-61
2022/06/09 02:16:21;;;;;;;1.03;0.93;;;13.70;99.90;13.20;100838.00;;;;5032238;28;20199;-61
2022/06/09 02:19:16;;;;;;;0.43;0.43;;;13.70;99.90;13.20;100825.00;;;;5032080;28;20196;-61
2022/06/09 02:22:06;;;;;;;0.60;0.60;;;13.60;99.90;13.40;100832.00;;;;5031248;28;20561;-61
2022/06/09 02:24:58;;;;;;;7.70;1.57;;;13.70;99.90;13.70;100824.00;;;;5033654;28;20265;-61
2022/06/09 02:28:04;;;;;;;4.00;1.00;;;13.70;99.90;13.70;100850.00;;;;5032338;28;20209;-61
2022/06/09 02:30:58;;;;;;;2.10;2.00;;;13.80;99.90;13.40;100847.00;;;;5031556;28;20208;-61
2022/06/09 02:33:54;;;;;;;1.03;0.70;;;13.80;99.90;13.30;100791.00;;;;5033332;28;20188;-61
2022/06/09 02:36:46;;;;;;;1.57;1.13;;;13.70;99.90;13.10;100860.00;;;;5032619;28;20285;-61
2022/06/09 02:39:45;;;;;;;1.47;1.43;;;13.60;99.90;13.10;100860.00;;;;5022383;28;20237;-61
2022/06/09 02:42:20;;;;;;;0.97;0.90;;;13.50;99.90;13.30;100866.00;;;;5033005;28;20263;-61
2022/06/09 02:45:02;;;;;;;0.97;0.97;;;13.50;99.90;13.50;100878.00;;;;5033237;28;20185;-61
2022/06/09 02:47:49;;;;;;;2.43;0.73;;;13.60;99.90;13.20;100881.00;;;;5033319;28;20234;-61
2022/06/09 02:50:28;;;;;;;6.23;1.23;;;13.60;99.90;13.10;100884.00;;;;5032926;28;20188;-61
2022/06/09 02:53:24;;;;;;;0.73;0.73;;;13.50;99.90;13.10;100881.00;;;;5032729;28;20664;-61
2022/06/09 02:56:15;;;;;;;1.33;1.23;;;13.40;99.90;13.10;100877.00;;;;5030307;28;20247;-62
2022/06/09 02:59:04;;;;;;;0.50;0.50;;;13.40;99.90;13.10;100880.00;;;;5032061;28;20186;-61
2022/06/09 03:01:57;;;;;;;0.40;0.40;;;13.40;99.90;13.10;100877.00;;;;5031647;28;20184;-61
2022/06/09 03:04:40;;;;;;;0.90;0.90;;;13.40;99.90;13.00;100864.00;;;;5031666;28;20212;-61
2022/06/09 03:07:37;;;;;;;0.30;0.30;;;13.40;99.90;13.20;100885.00;;;;5031414;28;20701;-61
2022/06/09 03:10:23;;;;;;;0.60;0.60;;;13.40;99.90;13.20;100880.00;;;;5032165;28;20254;-62
2022/06/09 03:13:18;;;;;;;1.67;1.57;;;13.40;99.90;13.10;100890.00;;;;5032658;28;20233;-61
2022/06/09 03:16:22;;;;;;;0.30;0.30;;;13.40;99.90;13.00;100886.00;;;;5032856;28;20204;-61
2022/06/09 03:19:13;;;;;;;1.00;1.00;;;13.40;99.90;12.90;100900.00;;;;5050351;28;20267;-61
2022/06/09 03:22:17;;;;;;;0.60;0.60;;;13.30;99.90;12.80;100894.00;;;;5019295;28;20208;-61
2022/06/09 03:25:07;;;;;;;0.43;0.43;;;13.30;99.90;12.80;100903.00;;;;5036472;28;20177;-61
2022/06/09 03:28:04;;;;;;;0.95;0.85;;;13.20;99.90;12.80;100898.00;;;;5034545;28;20425;-61
2022/06/09 03:30:59;;;;;;;0.60;0.53;;;13.20;99.90;12.80;100910.00;;;;5036742;28;20174;-61
2022/06/09 03:33:52;;;;;;;0.50;0.50;;;13.20;99.90;12.70;100892.00;;;;5035910;28;20187;-61
2022/06/09 03:40:23;;;;;;;1.33;1.33;;;13.30;99.90;12.90;100920.00;;;;5036472;28;20664;-61
2022/06/09 03:43:34;;;;;;;0.97;0.97;;;13.30;99.90;13.00;100927.00;;;;5034983;28;20646;-61
2022/06/09 03:46:55;;;;;;;1.13;0.77;;;13.30;99.90;12.90;100916.00;;;;5035226;28;20247;-61
2022/06/09 03:50:04;;;;;;;1.23;1.13;;;13.30;99.90;13.00;100847.00;;;;5035246;28;20183;-61
2022/06/09 03:52:50;;;;;;;7.70;2.10;;;13.40;99.90;13.10;100936.00;;;;5034730;28;20574;-61
2022/06/09 03:55:51;;;;;;;1.63;0.60;;;13.40;99.90;13.00;100942.00;;;;5035903;28;20176;-61
2022/06/09 03:59:05;;;;;;;0.40;0.40;;;13.40;99.90;12.90;100943.00;;;;5035376;28;20192;-61
2022/06/09 04:02:01;;;;;;;0.90;0.90;;;13.40;99.90;13.00;100941.00;;;;5035882;28;20639;-61
2022/06/09 04:04:52;;;;;;;2.27;1.63;;;13.40;99.90;13.40;100942.00;;;;5035648;28;20175;-61
2022/06/09 04:07:41;;;;;;;0.87;0.87;;;13.60;99.90;13.80;100951.00;;;;5035570;28;20177;-61
2022/06/09 04:10:44;;;;;;;0.30;0.30;;;13.80;99.90;13.20;100951.00;;;;5018071;28;20554;-61
2022/06/09 04:13:35;;;;;;;0.50;0.50;;;13.70;99.90;13.10;100950.00;;;;5035449;28;20219;-61
2022/06/09 04:16:55;;;;;;;4.47;1.57;;;13.60;99.90;13.10;100957.00;;;;5034416;28;20188;-61
2022/06/09 04:19:49;;;;;;;1.80;1.70;;;13.60;99.90;13.20;100959.00;;;;5035713;28;20268;-61
2022/06/09 04:22:38;;;;;;;0.30;0.30;;;13.60;99.90;13.50;100967.00;;;;5035353;28;20210;-61
2022/06/09 04:25:07;;;;;;;1.53;1.33;;;13.70;99.90;13.60;100894.00;;;;5034107;28;20165;-61
2022/06/09 04:27:57;;;;;;;0.30;0.30;;;13.80;99.90;13.60;100966.00;;;;5034241;28;20178;-61
2022/06/09 04:30:46;;;;;;;0.30;0.30;;;14.00;99.90;14.20;100968.00;;;;5044182;28;20643;-61
2022/06/09 04:33:33;;;;;;;0.30;0.30;;;14.20;99.90;14.10;100965.00;;;;5033859;28;20213;-61
2022/06/09 04:36:37;;;;;;;2.30;2.00;;;14.40;99.90;14.90;100977.00;;;;5035030;28;20263;-61
2022/06/09 04:39:41;;;;;;;0.40;0.40;;;14.70;99.90;14.70;100977.00;;;;5035204;28;20638;-61
2022/06/09 04:42:47;;;;;;;0.97;0.97;;;15.10;99.90;14.60;100980.00;;;;5034920;28;20192;-61
2022/06/09 04:45:48;;;;;;;14.67;4.77;;;15.00;99.90;15.40;100973.00;;;;5033468;28;20217;-61
2022/06/09 04:48:38;;;;;;;1.90;1.50;;;15.40;99.90;15.00;100974.00;;;;5034977;28;20195;-61
2022/06/09 04:51:52;;;;;;;0.50;0.50;;;15.30;99.90;15.40;100978.00;;;;5034004;28;20250;-61
2022/06/09 04:55:03;;;;;;;3.00;0.77;;;15.60;99.90;16.20;100974.00;;;;5033788;28;20641;-62
2022/06/09 04:58:14;;;;;;;1.17;1.17;;;16.00;99.90;15.70;100968.00;;;;5034843;28;20645;-62
2022/06/09 05:01:26;;;;;;;2.83;0.63;;;16.30;99.90;15.70;100977.00;;;;5050356;28;20663;-61
2022/06/09 05:04:34;;;;;;;5.63;2.23;;;16.30;99.90;15.70;100984.00;;;;5034913;28;20220;-61
2022/06/09 05:07:42;;;;;;;3.43;0.73;;;16.30;99.90;15.30;100998.00;;;;5034714;28;20496;-61
2022/06/09 05:10:32;;;;;;;1.50;1.33;;;16.10;99.90;15.40;101007.00;;;;5034485;28;20200;-62
2022/06/09 05:13:31;;;;;;;7.67;1.23;;;15.90;99.90;16.10;101003.00;;;;5034487;28;20216;-62
2022/06/09 05:16:32;;;;;;;3.13;1.20;;;16.30;99.90;15.90;100999.00;;;;5034387;28;20187;-62
2022/06/09 05:19:36;;;;;;;5.37;1.07;;;16.20;99.90;15.10;101007.00;;;;5034421;28;20190;-62
2022/06/09 05:22:51;;;;;;;1.00;0.87;;;15.80;99.90;15.00;101012.00;;;;5034169;28;20194;-61
2022/06/09 05:25:45;;;;;;;1.70;1.60;;;15.80;99.90;15.80;101028.00;;;;5032823;28;20224;-61
2022/06/09 05:29:04;;;;;;;1.27;1.00;;;15.80;99.90;15.80;100946.00;;;;5032978;28;20186;-62
2022/06/09 05:32:22;;;;;;;0.53;0.53;;;16.20;99.90;16.90;101015.00;;;;5034301;28;20216;-61
2022/06/09 05:35:59;;;;;;;0.30;0.30;;;16.70;99.90;16.70;101005.00;;;;5033942;28;20524;-61
2022/06/09 05:45:26;;;;;;;7.80;2.67;;;17.50;99.90;16.50;101022.00;;;;5032844;28;20201;-61
2022/06/09 05:48:29;;;;;;;9.70;1.30;;;17.40;99.90;17.10;100979.00;;;;5032714;28;20217;-61
2022/06/09 05:50:59;;;;;;;1.77;1.50;;;17.10;99.90;17.40;100985.00;;;;5032633;28;20216;-61
2022/06/09 05:53:48;;;;;;;1.40;0.60;;;17.70;99.90;17.20;101038.00;;;;5016147;28;20183;-61
2022/06/09 05:57:09;;;;;;;2.00;0.82;;;17.80;99.90;18.10;101052.00;;;;5032373;28;20183;-61
2022/06/09 06:00:03;;;;;;;1.43;1.13;;;18.30;99.90;16.50;101039.00;;;;5033833;28;20625;-61
2022/06/09 06:03:00;;;;;;;1.23;0.53;;;17.40;99.90;18.30;101042.00;;;;5030974;28;20684;-61
2022/06/09 06:08:48;;;;;;;6.32;1.08;;;18.30;99.90;17.20;101040.00;;;;5033467;28;20644;-61
2022/06/09 06:11:35;;;;;;;2.13;0.98;;;18.10;99.90;18.60;101046.00;;;;5032109;28;20179;-61
2022/06/09 06:14:27;;;;;;;1.10;1.00;;;18.70;99.90;17.90;101044.00;;;;5032136;28;20285;-61
2022/06/09 06:17:31;;;;;;;11.32;2.50;;;18.60;99.90;19.50;101059.00;;;;5032479;28;20175;-61
2022/06/09 06:20:02;;;;;;;4.03;2.05;;;19.20;99.90;19.10;101056.00;;;;5033339;28;20178;-61
2022/06/09 06:23:06;;;;;;;3.63;1.13;;;19.80;99.90;19.20;101064.00;;;;5033739;28;20178;-61
2022/06/09 06:25:43;;;;;;;0.10;0.10;;;19.90;99.90;20.20;101063.00;;;;5033008;28;20229;-61
2022/06/09 06:28:24;;;;;;;5.60;1.75;;;20.00;99.90;21.60;101101.00;;;;5016069;28;20182;-61
2022/06/09 06:31:18;;;;;;;1.02;0.50;;;21.10;99.90;23.20;101149.00;;;;5032307;28;20163;-62
2022/06/09 06:33:58;;;;;;;2.33;2.05;;;22.60;99.90;22.90;101162.00;;;;5033312;28;20191;-61
2022/06/09 06:36:29;;;;;;;1.88;1.20;;;22.60;99.90;21.70;101137.00;;;;5031795;28;20622;-61
2022/06/09 06:39:02;;;;;;;1.33;0.85;;;21.90;99.90;19.80;101101.00;;;;5033447;28;20192;-61
2022/06/09 06:41:31;;;;;;;2.38;1.48;;;20.60;99.90;19.50;101113.00;;;;5031647;28;20674;-61
2022/06/09 06:44:02;;;;;;;0.55;0.55;;;20.60;99.90;21.60;101110.00;;;;5033601;28;20254;-61
2022/06/09 06:46:37;;;;;;;0.10;0.10;;;21.00;99.90;22.00;101144.00;;;;5033122;28;20240;-61
2022/06/09 06:49:08;;;;;;;4.35;1.05;;;21.60;99.90;22.10;101172.00;;;;5033350;28;20182;-61
2022/06/09 06:51:40;;;;;;;0.10;0.10;;;22.00;99.90;19.30;101129.00;;;;5032970;28;20198;-61
2022/06/09 06:54:11;;;;;;;14.32;2.40;;;20.50;99.90;17.90;101111.00;;;;5017675;28;20646;-61
2022/06/09 06:56:37;;;;;;;4.57;1.65;;;19.00;99.90;17.60;101104.00;;;;5052290;28;20197;-61
2022/06/09 07:00:01;;;;;;;1.77;1.57;;;18.30;99.90;16.70;101123.00;;;;5036047;28;20281;-62
2022/06/09 07:03:03;;;;;;;0.30;0.30;;;17.70;99.90;18.50;101160.00;;;;5035798;28;20179;-60
2022/06/09 07:05:39;;;;;;;0.20;0.20;;;18.20;99.90;18.60;101151.00;;;;5036794;28;20189;-60
2022/06/09 07:08:17;;;;;;;3.10;1.43;;;18.60;99.90;18.70;101142.00;;;;5037003;28;20192;-60
2022/06/09 07:11:27;;;;;;;0.10;0.10;;;18.80;99.90;19.60;101149.00;;;;5036482;28;20189;-60
2022/06/09 07:14:12;;;;;;;0.10;0.10;;;19.20;99.90;21.60;101172.00;;;;5036292;28;20221;-60
2022/06/09 07:16:40;;;;;;;0.95;0.95;;;20.50;99.90;24.60;101194.00;;;;5019220;28;20195;-61
2022/06/09 07:19:06;;;;;;;0.10;0.10;;;23.20;99.90;26.00;101295.00;;;;5036682;28;20273;-61
2022/06/09 07:21:52;;;;;;;0.10;0.10;;;25.00;99.90;27.80;101309.00;;;;5036427;28;20630;-60
2022/06/09 07:24:41;;;;;;;0.15;0.15;;;26.70;99.90;28.00;101323.00;;;;5033795;28;20241;-61
2022/06/09 07:28:10;;;;;;;0.00;0.00;;;27.30;99.90;25.10;101336.00;;;;5026687;28;20179;-60
2022/06/09 07:30:56;;;;;;;0.45;0.45;;;25.60;99.90;24.80;101352.00;;;;5032782;28;20281;-60
2022/06/09 07:33:31;;;;;;;0.17;0.17;;;24.70;99.90;23.60;101344.00;;;;5035027;28;20276;-61
2022/06/09 07:36:21;;;;;;;0.10;0.10;;;23.70;99.90;23.10;101281.00;;;;5035491;28;20179;-60
2022/06/09 07:39:12;;;;;;;0.10;0.10;;;22.80;99.90;22.80;101298.00;;;;5034612;28;20241;-60
2022/06/09 07:42:21;;;;;;;1.55;0.60;;;22.30;99.90;21.40;101304.00;;;;5036583;28;20171;-60
2022/06/09 07:45:26;;;;;;;0.17;0.17;;;21.70;99.90;19.90;101244.00;;;;5052341;28;20197;-60
2022/06/09 07:48:10;;;;;;;0.40;0.40;;;20.60;99.90;19.50;101224.00;;;;5035293;28;20293;-60
2022/06/09 07:51:13;;;;;;;0.28;0.28;;;19.80;99.90;19.70;101230.00;;;;5036068;28;20232;-60
2022/06/09 07:54:00;;;;;;;0.20;0.20;;;19.70;99.90;19.60;101229.00;;;;5035648;28;20236;-60
2022/06/09 07:57:35;;;;;;;0.20;0.20;;;19.60;99.90;20.10;101239.00;;;;5068010;28;20633;-60
2022/06/09 08:00:23;;;;;;;0.20;0.20;;;19.80;99.90;20.00;101251.00;;;;5049610;28;20187;-60
2022/06/09 08:03:29;;;;;;;0.20;0.20;;;19.80;99.90;19.40;101239.00;;;;5035671;28;20528;-60
2022/06/09 08:06:43;;;;;;;0.32;0.32;;;19.60;99.90;18.70;101225.00;;;;5035437;28;20268;-60
2022/06/09 08:09:21;;;;;;;0.13;0.13;;;19.20;99.90;18.60;101233.00;;;;5015635;28;20188;-60
2022/06/09 08:12:10;;;;;;;0.20;0.20;;;18.90;99.90;19.50;101252.00;;;;5034198;28;20664;-60
2022/06/09 08:14:44;;;;;;;0.32;0.32;;;19.30;99.90;19.70;101242.00;;;;5034464;28;20273;-60
2022/06/09 08:17:30;;;;;;;0.10;0.10;;;19.60;99.90;20.40;101264.00;;;;5034545;28;20186;-61
2022/06/09 08:20:23;;;;;;;0.52;0.47;;;20.00;99.90;20.00;101259.00;;;;5034207;28;20232;-61
2022/06/09 08:23:21;;;;;;;0.45;0.45;;;20.20;99.90;19.90;101258.00;;;;5033928;28;20273;-62
2022/06/09 08:25:50;;;;;;;0.40;0.40;;;20.00;99.90;20.00;101265.00;;;;5034510;28;20559;-61
2022/06/09 08:28:18;;;;;;;0.30;0.30;;;20.00;99.90;20.00;101268.00;;;;5033296;28;20193;-61
2022/06/09 08:30:51;;;;;;;0.20;0.20;;;19.90;99.90;19.50;101268.00;;;;5035474;28;20268;-61
2022/06/09 08:33:27;;;;;;;0.20;0.20;;;19.70;99.90;19.70;101271.00;;;;5034031;28;20300;-61
2022/06/09 08:35:54;;;;;;;0.20;0.20;;;19.80;99.90;19.70;101278.00;;;;5035238;28;20194;-61
2022/06/09 08:38:28;;;;;;;0.52;0.52;;;19.60;99.90;19.00;101271.00;;;;5034710;28;20280;-62
2022/06/09 08:41:29;;;;;;;0.30;0.30;;;19.30;99.90;19.50;101288.00;;;;5015418;28;20182;-65
2022/06/09 08:44:36;;;;;;;0.20;0.20;;;19.40;99.90;19.90;101297.00;;;;5014305;28;20531;-69
2022/06/09 08:47:38;;;;;;;0.10;0.10;;;19.60;99.90;20.00;101303.00;;;;5014213;28;20549;-69
2022/06/09 08:50:17;;;;;;;0.20;0.20;;;19.70;99.90;20.40;101240.00;;;;4997926;28;20219;-62
2022/06/09 08:53:14;;;;;;;0.90;0.90;;;20.10;99.90;20.10;101296.00;;;;5014586;28;20214;-62
2022/06/09 08:55:48;;;;;;;0.23;0.23;;;20.20;99.90;19.40;101293.00;;;;5014040;28;20265;-63
2022/06/09 08:58:43;;;;;;;0.20;0.20;;;19.60;99.90;19.50;101305.00;;;;5015288;28;20185;-62
2022/06/09 09:01:34;;;;;;;0.20;0.20;;;19.80;99.90;19.50;101301.00;;;;5014097;28;20282;-62
2022/06/09 09:04:21;;;;;;;0.10;0.10;;;19.50;99.90;20.10;101311.00;;;;5013530;28;20176;-62
2022/06/09 09:07:36;;;;;;;0.10;0.10;;;19.90;99.90;21.20;101326.00;;;;5014625;28;20630;-62
2022/06/09 09:10:32;;;;;;;0.20;0.20;;;20.80;99.90;22.60;101315.00;;;;5011947;28;20211;-62
2022/06/09 09:13:46;;;;;;;0.10;0.10;;;22.10;99.90;22.80;101377.00;;;;5013777;28;20207;-62
2022/06/09 09:16:44;;;;;;;0.10;0.10;;;22.40;99.90;23.40;101355.00;;;;5012832;28;20273;-63
2022/06/09 09:19:34;;;;;;;0.25;0.25;;;22.90;99.90;23.10;101412.00;;;;5014773;28;20207;-63
2022/06/09 09:22:23;;;;;;;0.10;0.10;;;22.80;99.90;23.80;101426.00;;;;5013147;28;20219;-63
2022/06/09 09:25:19;;;;;;;0.17;0.17;;;23.10;99.90;23.80;101440.00;;;;5018560;28;20194;-62
2022/06/09 09:28:15;;;;;;;0.10;0.10;;;23.30;99.90;22.50;101427.00;;;;5026384;28;20186;-62
2022/06/09 09:31:00;;;;;;;0.10;0.10;;;22.60;99.90;23.40;101441.00;;;;5061443;23;20225;-66
2022/06/09 09:33:28;;;;;;;0.63;0.63;;;22.90;99.90;23.00;101436.00;;;;5049155;28;20285;-66
2022/06/09 09:36:04;;;;;;;0.13;0.13;;;23.00;99.90;22.80;101416.00;;;;5050302;23;20229;-68
2022/06/09 09:38:41;;;;;;;1.88;1.08;;;22.50;99.90;23.80;101462.00;;;;5063555;23;20214;-69
2022/06/09 09:41:10;;;;;;;0.10;0.10;;;23.70;99.90;25.20;101467.00;;;;5029219;28;20285;-68
2022/06/09 09:44:14;;;;;;;0.10;0.10;;;24.30;99.90;26.80;101490.00;;;;5029401;28;20184;-68
2022/06/09 09:46:58;;;;;;;1.13;0.40;;;25.60;99.90;24.60;101502.00;;;;5014216;28;20183;-73
2022/06/09 09:49:32;;;;;;;0.10;0.10;;;25.90;99.90;25.20;101470.00;;;;5014889;28;20205;-71
2022/06/09 09:52:02;;;;;;;0.10;0.10;;;24.80;99.90;26.40;101499.00;;;;5012814;28;20180;-71
2022/06/09 09:54:38;;;;;;;0.17;0.17;;;25.60;99.90;26.50;101497.00;;;;5015206;28;20186;-73
2022/06/09 09:57:25;;;;;;;0.10;0.10;;;25.90;99.90;26.70;101507.00;;;;5026181;28;20187;-68
2022/06/09 09:59:58;;;;;;;0.22;0.22;;;26.00;99.90;26.80;101513.00;;;;5032115;28;20167;-67
2022/06/09 10:08:40;;;;;;;1.20;0.43;;;21.30;99.90;21.00;101450.00;;;;5032342;28;20205;-66
2022/06/09 10:14:21;;;;;;;1.17;0.75;;;21.00;99.90;21.30;101484.00;;;;5033470;28;20692;-67
2022/06/09 10:16:56;;;;;;;0.17;0.17;;;21.10;99.90;20.50;101466.00;;;;5033808;28;20202;-67
2022/06/09 10:19:39;;;;;;;2.60;1.20;;;20.50;99.90;19.90;101447.00;;;;5031915;28;20179;-67
2022/06/09 10:33:12;;;;;;;1.85;1.73;;;19.90;99.90;20.70;101450.00;;;;5050697;28;20557;-66
2022/06/09 10:36:01;;;;;;;0.10;0.10;;;20.40;99.90;20.60;101440.00;;;;5050402;28;20531;-66
2022/06/09 10:38:37;;;;;;;0.10;0.10;;;20.40;99.90;21.60;101441.00;;;;5048847;28;20683;-67
2022/06/09 10:41:19;;;;;;;1.77;1.67;;;21.00;99.90;20.30;101468.00;;;;5032127;28;20220;-66
2022/06/09 10:44:14;;;;;;;0.10;0.10;;;20.60;99.90;21.70;101491.00;;;;5075200;28;20268;-67
2022/06/09 10:57:03;;;;;;;6.40;0.65;;;21.00;99.90;20.70;101468.00;;;;5028591;28;20205;-66
2022/06/09 11:00:00;;;;;;;1.90;1.08;;;20.70;99.90;18.90;101427.00;;;;5044078;28;20197;-67
2022/06/09 11:02:32;;;;;;;0.10;0.10;;;20.00;99.90;19.00;101418.00;;;;5052040;28;20641;-66
2022/06/09 11:05:00;;;;;;;0.20;0.20;;;19.50;99.90;19.40;101422.00;;;;5043696;28;20292;-67
2022/06/09 11:07:42;;;;;;;0.10;0.10;;;19.60;99.90;19.50;101422.00;;;;5052118;28;20200;-67
2022/06/09 11:10:43;;;;;;;0.38;0.38;;;19.60;99.90;19.70;101421.00;;;;5060989;28;20645;-66
2022/06/09 11:13:15;;;;;;;0.20;0.20;;;19.70;99.90;19.80;101432.00;;;;5055747;28;20558;-67
2022/06/09 11:15:56;;;;;;;0.10;0.10;;;20.00;99.90;20.10;101435.00;;;;5049567;28;20591;-66
2022/06/09 11:19:16;;;;;;;0.10;0.10;;;20.20;99.90;21.00;101437.00;;;;5048775;28;20187;-66
2022/06/09 11:22:07;;;;;;;0.10;0.10;;;20.40;99.90;22.20;101435.00;;;;5048241;28;20273;-66
2022/06/09 11:24:50;;;;;;;0.40;0.40;;;21.50;99.90;22.20;101468.00;;;;5049930;28;20202;-67
2022/06/09 11:27:38;;;;;;;2.10;0.55;;;21.80;99.90;21.20;101456.00;;;;5048568;28;20262;-66
2022/06/09 11:30:34;;;;;;;0.10;0.10;;;21.30;99.90;22.20;101453.00;;;;5048513;28;20176;-66
2022/06/09 11:33:25;;;;;;;4.72;1.40;;;21.70;99.90;22.70;101482.00;;;;5049146;28;20214;-66
2022/06/09 11:36:33;;;;;;;0.57;0.50;;;22.90;99.90;23.20;101551.00;;;;5056560;28;20198;-66
2022/06/09 11:39:21;;;;;;;1.17;1.17;;;23.60;99.90;22.30;101545.00;;;;5057847;28;20185;-66
2022/06/09 11:42:18;;;;;;;0.20;0.10;;;23.20;99.90;23.70;101562.00;;;;5057296;28;20178;-66
2022/06/09 11:45:31;;;;;;;1.10;1.00;;;23.20;99.90;21.10;101537.00;;;;5046152;28;20178;-66
2022/06/09 11:48:06;;;;;;;0.73;0.73;;;21.80;99.90;20.80;101484.00;;;;5040508;28;20178;-66
2022/06/09 11:50:43;;;;;;;0.32;0.32;;;21.20;99.90;21.80;101534.00;;;;5043885;28;20183;-66
2022/06/09 11:53:28;;;;;;;0.80;0.57;;;21.30;99.90;22.70;101556.00;;;;5041018;28;20195;-66
2022/06/09 11:56:33;;;;;;;0.20;0.20;;;21.90;99.90;23.50;101575.00;;;;5044423;28;20209;-66
2022/06/09 12:00:00;;;;;;;0.10;0.10;;;22.60;99.90;24.50;101591.00;;;;5043306;28;20215;-66
2022/06/09 12:02:53;;;;;;;0.10;0.10;;;23.40;99.90;24.40;101607.00;;;;5043717;28;20205;-66
2022/06/09 12:05:52;;;;;;;0.10;0.10;;;23.70;99.90;25.10;101602.00;;;;5059693;28;20591;-66
2022/06/09 12:08:53;;;;;;;1.23;0.40;;;24.40;99.90;26.00;101614.00;;;;5046150;28;20195;-66
2022/06/09 12:12:18;;;;;;;0.10;0.10;;;25.10;99.90;26.40;101612.00;;;;5045020;28;20189;-66
2022/06/09 12:14:48;;;;;;;0.10;0.10;;;25.70;99.90;26.00;101613.00;;;;5046114;28;20240;-66
2022/06/09 12:18:25;;;;;;;0.30;0.30;;;25.70;99.90;25.50;101614.00;;;;5046837;28;20194;-66
2022/06/09 12:21:02;;;;;;;0.22;0.22;;;25.10;99.90;24.60;101614.00;;;;5024875;28;20209;-66
2022/06/09 12:23:44;;;;;;;4.68;0.80;;;24.70;99.90;24.50;101632.00;;;;5040473;28;20223;-66
2022/06/09 12:26:34;;;;;;;0.20;0.20;;;24.00;99.90;24.90;101595.00;;;;5043472;28;20198;-67
2022/06/09 12:29:16;;;;;;;0.10;0.10;;;24.20;99.90;25.30;101625.00;;;;5038641;28;20226;-63
2022/06/09 12:32:13;;;;;;;0.22;0.22;;;24.50;99.90;25.40;101631.00;;;;5025476;28;20214;-64
2022/06/09 12:35:02;;;;;;;2.00;1.27;;;24.60;99.90;22.80;101604.00;;;;5027864;28;20226;-64
2022/06/09 12:37:53;;;;;;;0.15;0.15;;;23.40;99.90;23.40;101627.00;;;;5033338;28;20187;-63
2022/06/09 12:40:53;;;;;;;0.10;0.10;;;22.90;99.90;24.10;101623.00;;;;5032914;28;20247;-64
2022/06/09 12:43:44;;;;;;;0.10;0.10;;;23.20;99.90;24.30;101598.00;;;;5028818;28;20233;-63
2022/06/09 12:46:27;;;;;;;0.28;0.28;;;23.60;99.90;24.40;101595.00;;;;5015898;28;20189;-68
2022/06/09 12:49:23;;;;;;;0.60;0.22;;;23.70;99.90;24.50;101655.00;;;;5015808;28;20256;-67
2022/06/09 12:56:20;;;;;;;0.10;0.10;;;23.80;99.90;24.80;101668.00;;;;5024541;28;20192;-66
2022/06/09 12:58:55;;;;;;;0.10;0.10;;;23.90;99.90;24.40;101663.00;;;;5016201;28;20229;-66
2022/06/09 13:01:28;;;;;;;0.40;0.40;;;23.90;99.90;23.20;101672.00;;;;5033235;28;20566;-67
2022/06/09 13:04:18;;;;;;;0.45;0.45;;;23.20;99.90;23.40;101637.00;;;;5033241;28;20170;-67
2022/06/09 13:06:47;;;;;;;1.35;0.85;;;22.90;99.90;22.90;101661.00;;;;5016549;28;20179;-67
2022/06/09 13:09:57;;;;;;;0.17;0.17;;;22.80;99.90;23.10;101677.00;;;;5016646;28;20209;-67
2022/06/09 13:13:21;;;;;;;0.10;0.10;;;22.60;99.90;23.70;101679.00;;;;5057490;28;20724;-66
2022/06/09 13:16:14;;;;;;;0.30;0.30;;;22.90;99.90;24.00;101686.00;;;;5034195;28;20653;-66
2022/06/09 13:18:47;;;;;;;0.10;0.10;;;23.20;99.90;24.00;101686.00;;;;5033714;28;20181;-67
2022/06/09 13:21:44;;;;;;;0.50;0.50;;;23.40;99.90;23.90;101686.00;;;;5013239;28;20187;-67
2022/06/09 13:24:40;;;;;;;0.43;0.43;;;23.40;99.90;24.50;101684.00;;;;5014324;28;20210;-67
2022/06/09 13:27:53;;;;;;;0.20;0.20;;;23.60;99.90;24.80;101694.00;;;;5031522;28;20732;-67
2022/06/09 13:30:57;;;;;;;0.10;0.10;;;23.90;99.90;25.00;101661.00;;;;5007577;28;20194;-67